sensor_id;sensor_type;location;lat;lon;timestamp;P1;durP1;ratioP1;P2;durP2;ratioP2
10418;SDS011;5256;48.728;9.140;2023-04-15T00:00:36;0.70;;;0.70;;
10418;SDS011;5256;48.728;9.140;2023-04-15T00:03:02;0.70;;;0.70;;
10418;SDS011;5256;48.728;9.140;2023-04-15T00:05:29;0.70;;;0.70;;
10418;SDS011;5256;48.728;9.140;2023-04-15T00:07:55;0.70;;;0.70;;
10418;SDS011;5256;48.728;9.140;2023-04-15T00:10:21;0.70;;;0.70;;
10418;SDS011;5256;48.728;9.140;2023-04-15T00:12:47;0.70;;;0.70;;
10418;SDS011;5256;48.728;9.140;2023-04-15T00:15:12;0.70;;;0.70;;
10418;SDS011;5256;48.728;9.140;2023-04-15T00:17:38;0.80;;;0.80;;
10418;SDS011;5256;48.728;9.140;2023-04-15T00:20:04;0.70;;;0.70;;
10418;SDS011;5256;48.728;9.140;2023-04-15T00:22:30;0.70;;;0.70;;
10418;SDS011;5256;48.728;9.140;2023-04-15T00:24:56;0.70;;;0.70;;
10418;SDS011;5256;48.728;9.140;2023-04-15T00:27:22;0.70;;;0.70;;
10418;SDS011;5256;48.728;9.140;2023-04-15T00:29:48;0.80;;;0.80;;
10418;SDS011;5256;48.728;9.140;2023-04-15T00:32:13;0.90;;;0.90;;
10418;SDS011;5256;48.728;9.140;2023-04-15T00:34:39;0.70;;;0.70;;
10418;SDS011;5256;48.728;9.140;2023-04-15T00:37:05;0.80;;;0.80;;
10418;SDS011;5256;48.728;9.140;2023-04-15T00:39:31;0.70;;;0.70;;
10418;SDS011;5256;48.728;9.140;2023-04-15T00:41:56;0.70;;;0.70;;
10418;SDS011;5256;48.728;9.140;2023-04-15T00:44:22;0.70;;;0.70;;
10418;SDS011;5256;48.728;9.140;2023-04-15T00:46:47;0.80;;;0.80;;
10418;SDS011;5256;48.728;9.140;2023-04-15T00:49:16;0.70;;;0.70;;
10418;SDS011;5256;48.728;9.140;2023-04-15T00:51:43;0.70;;;0.70;;
10418;SDS011;5256;48.728;9.140;2023-04-15T00:54:08;0.70;;;0.70;;
10418;SDS011;5256;48.728;9.140;2023-04-15T00:56:34;0.70;;;0.70;;
10418;SDS011;5256;48.728;9.140;2023-04-15T00:59:02;0.70;;;0.70;;
10418;SDS011;5256;48.728;9.140;2023-04-15T01:01:28;0.70;;;0.70;;
10418;SDS011;5256;48.728;9.140;2023-04-15T01:03:55;0.70;;;0.70;;
10418;SDS011;5256;48.728;9.140;2023-04-15T01:06:24;0.70;;;0.70;;
10418;SDS011;5256;48.728;9.140;2023-04-15T01:08:51;0.70;;;0.70;;
10418;SDS011;5256;48.728;9.140;2023-04-15T01:11:18;0.70;;;0.70;;
10418;SDS011;5256;48.728;9.140;2023-04-15T01:13:44;0.70;;;0.70;;
10418;SDS011;5256;48.728;9.140;2023-04-15T01:16:10;0.70;;;0.70;;
10418;SDS011;5256;48.728;9.140;2023-04-15T01:18:37;0.70;;;0.70;;
10418;SDS011;5256;48.728;9.140;2023-04-15T01:21:03;0.80;;;0.80;;
10418;SDS011;5256;48.728;9.140;2023-04-15T01:23:30;0.73;;;0.73;;
10418;SDS011;5256;48.728;9.140;2023-04-15T01:25:56;0.70;;;0.70;;
10418;SDS011;5256;48.728;9.140;2023-04-15T01:28:23;0.70;;;0.70;;
10418;SDS011;5256;48.728;9.140;2023-04-15T01:30:49;0.80;;;0.80;;
10418;SDS011;5256;48.728;9.140;2023-04-15T01:33:15;0.80;;;0.80;;
10418;SDS011;5256;48.728;9.140;2023-04-15T01:35:40;0.70;;;0.70;;
10418;SDS011;5256;48.728;9.140;2023-04-15T01:38:08;0.80;;;0.80;;
10418;SDS011;5256;48.728;9.140;2023-04-15T01:40:35;0.70;;;0.70;;
10418;SDS011;5256;48.728;9.140;2023-04-15T01:43:01;0.70;;;0.70;;
10418;SDS011;5256;48.728;9.140;2023-04-15T01:45:27;0.80;;;0.80;;
10418;SDS011;5256;48.728;9.140;2023-04-15T01:47:53;0.70;;;0.70;;
10418;SDS011;5256;48.728;9.140;2023-04-15T01:50:19;0.70;;;0.70;;
10418;SDS011;5256;48.728;9.140;2023-04-15T01:52:45;0.80;;;0.80;;
10418;SDS011;5256;48.728;9.140;2023-04-15T01:55:12;0.80;;;0.80;;
10418;SDS011;5256;48.728;9.140;2023-04-15T01:57:38;0.80;;;0.80;;
10418;SDS011;5256;48.728;9.140;2023-04-15T02:00:04;0.80;;;0.80;;
10418;SDS011;5256;48.728;9.140;2023-04-15T02:02:31;0.80;;;0.80;;
10418;SDS011;5256;48.728;9.140;2023-04-15T02:04:57;0.80;;;0.80;;
10418;SDS011;5256;48.728;9.140;2023-04-15T02:07:23;0.90;;;0.90;;
10418;SDS011;5256;48.728;9.140;2023-04-15T02:09:48;0.80;;;0.80;;
10418;SDS011;5256;48.728;9.140;2023-04-15T02:12:14;0.80;;;0.80;;
10418;SDS011;5256;48.728;9.140;2023-04-15T02:14:39;0.77;;;0.77;;
10418;SDS011;5256;48.728;9.140;2023-04-15T02:17:05;0.80;;;0.80;;
10418;SDS011;5256;48.728;9.140;2023-04-15T02:19:33;0.70;;;0.70;;
10418;SDS011;5256;48.728;9.140;2023-04-15T02:21:59;0.77;;;0.77;;
10418;SDS011;5256;48.728;9.140;2023-04-15T02:24:26;0.80;;;0.80;;
10418;SDS011;5256;48.728;9.140;2023-04-15T02:26:52;0.90;;;0.90;;
10418;SDS011;5256;48.728;9.140;2023-04-15T02:29:18;0.77;;;0.77;;
10418;SDS011;5256;48.728;9.140;2023-04-15T02:31:43;0.70;;;0.70;;
10418;SDS011;5256;48.728;9.140;2023-04-15T02:34:09;0.90;;;0.90;;
10418;SDS011;5256;48.728;9.140;2023-04-15T02:36:35;0.70;;;0.70;;
10418;SDS011;5256;48.728;9.140;2023-04-15T02:39:01;0.90;;;0.90;;
10418;SDS011;5256;48.728;9.140;2023-04-15T02:41:28;0.80;;;0.80;;
10418;SDS011;5256;48.728;9.140;2023-04-15T02:43:54;0.80;;;0.80;;
10418;SDS011;5256;48.728;9.140;2023-04-15T02:46:20;0.80;;;0.80;;
10418;SDS011;5256;48.728;9.140;2023-04-15T02:48:46;0.70;;;0.70;;
10418;SDS011;5256;48.728;9.140;2023-04-15T02:51:13;0.90;;;0.90;;
10418;SDS011;5256;48.728;9.140;2023-04-15T02:53:44;0.80;;;0.80;;
10418;SDS011;5256;48.728;9.140;2023-04-15T02:56:10;0.80;;;0.80;;
10418;SDS011;5256;48.728;9.140;2023-04-15T02:58:36;0.80;;;0.80;;
10418;SDS011;5256;48.728;9.140;2023-04-15T03:01:02;0.73;;;0.73;;
10418;SDS011;5256;48.728;9.140;2023-04-15T03:03:27;0.80;;;0.80;;
10418;SDS011;5256;48.728;9.140;2023-04-15T03:05:53;0.80;;;0.80;;
10418;SDS011;5256;48.728;9.140;2023-04-15T03:08:18;0.80;;;0.80;;
10418;SDS011;5256;48.728;9.140;2023-04-15T03:10:47;0.80;;;0.80;;
10418;SDS011;5256;48.728;9.140;2023-04-15T03:13:13;0.70;;;0.70;;
10418;SDS011;5256;48.728;9.140;2023-04-15T03:15:38;0.90;;;0.90;;
10418;SDS011;5256;48.728;9.140;2023-04-15T03:18:04;0.80;;;0.80;;
10418;SDS011;5256;48.728;9.140;2023-04-15T03:20:29;0.80;;;0.80;;
10418;SDS011;5256;48.728;9.140;2023-04-15T03:22:55;0.90;;;0.90;;
10418;SDS011;5256;48.728;9.140;2023-04-15T03:25:20;0.90;;;0.90;;
10418;SDS011;5256;48.728;9.140;2023-04-15T03:27:46;0.87;;;0.87;;
10418;SDS011;5256;48.728;9.140;2023-04-15T03:30:12;0.70;;;0.70;;
10418;SDS011;5256;48.728;9.140;2023-04-15T03:32:37;0.80;;;0.80;;
10418;SDS011;5256;48.728;9.140;2023-04-15T03:35:03;0.80;;;0.80;;
10418;SDS011;5256;48.728;9.140;2023-04-15T03:37:29;0.80;;;0.80;;
10418;SDS011;5256;48.728;9.140;2023-04-15T03:39:55;0.80;;;0.80;;
10418;SDS011;5256;48.728;9.140;2023-04-15T03:42:20;0.90;;;0.90;;
10418;SDS011;5256;48.728;9.140;2023-04-15T03:44:46;0.77;;;0.77;;
10418;SDS011;5256;48.728;9.140;2023-04-15T03:47:12;0.80;;;0.80;;
10418;SDS011;5256;48.728;9.140;2023-04-15T03:49:37;0.80;;;0.80;;
10418;SDS011;5256;48.728;9.140;2023-04-15T03:52:03;0.90;;;0.90;;
10418;SDS011;5256;48.728;9.140;2023-04-15T03:54:29;0.80;;;0.80;;
10418;SDS011;5256;48.728;9.140;2023-04-15T03:56:55;0.90;;;0.90;;
10418;SDS011;5256;48.728;9.140;2023-04-15T03:59:21;0.73;;;0.73;;
10418;SDS011;5256;48.728;9.140;2023-04-15T04:01:47;0.80;;;0.80;;
10418;SDS011;5256;48.728;9.140;2023-04-15T04:04:13;0.80;;;0.80;;
10418;SDS011;5256;48.728;9.140;2023-04-15T04:06:38;0.90;;;0.90;;
10418;SDS011;5256;48.728;9.140;2023-04-15T04:09:04;0.90;;;0.90;;
10418;SDS011;5256;48.728;9.140;2023-04-15T04:11:29;0.80;;;0.80;;
10418;SDS011;5256;48.728;9.140;2023-04-15T04:13:55;0.80;;;0.80;;
10418;SDS011;5256;48.728;9.140;2023-04-15T04:16:21;0.80;;;0.80;;
10418;SDS011;5256;48.728;9.140;2023-04-15T04:18:46;0.97;;;0.97;;
10418;SDS011;5256;48.728;9.140;2023-04-15T04:21:12;0.87;;;0.87;;
10418;SDS011;5256;48.728;9.140;2023-04-15T04:23:38;1.00;;;1.00;;
10418;SDS011;5256;48.728;9.140;2023-04-15T04:26:03;0.80;;;0.80;;
10418;SDS011;5256;48.728;9.140;2023-04-15T04:28:29;0.90;;;0.90;;
10418;SDS011;5256;48.728;9.140;2023-04-15T04:30:54;0.90;;;0.90;;
10418;SDS011;5256;48.728;9.140;2023-04-15T04:33:20;0.97;;;0.97;;
10418;SDS011;5256;48.728;9.140;2023-04-15T04:35:46;0.80;;;0.80;;
10418;SDS011;5256;48.728;9.140;2023-04-15T04:38:11;0.90;;;0.90;;
10418;SDS011;5256;48.728;9.140;2023-04-15T04:40:37;0.90;;;0.90;;
10418;SDS011;5256;48.728;9.140;2023-04-15T04:43:03;0.90;;;0.90;;
10418;SDS011;5256;48.728;9.140;2023-04-15T04:45:28;0.90;;;0.90;;
10418;SDS011;5256;48.728;9.140;2023-04-15T04:47:54;0.90;;;0.90;;
10418;SDS011;5256;48.728;9.140;2023-04-15T04:50:19;0.90;;;0.90;;
10418;SDS011;5256;48.728;9.140;2023-04-15T04:52:45;0.97;;;0.97;;
10418;SDS011;5256;48.728;9.140;2023-04-15T04:55:10;0.90;;;0.90;;
10418;SDS011;5256;48.728;9.140;2023-04-15T04:57:36;0.87;;;0.87;;
10418;SDS011;5256;48.728;9.140;2023-04-15T05:00:03;0.90;;;0.90;;
10418;SDS011;5256;48.728;9.140;2023-04-15T05:02:30;0.90;;;0.90;;
10418;SDS011;5256;48.728;9.140;2023-04-15T05:04:56;0.90;;;0.90;;
10418;SDS011;5256;48.728;9.140;2023-04-15T05:07:21;0.83;;;0.83;;
10418;SDS011;5256;48.728;9.140;2023-04-15T05:09:47;0.90;;;0.90;;
10418;SDS011;5256;48.728;9.140;2023-04-15T05:12:13;0.80;;;0.80;;
10418;SDS011;5256;48.728;9.140;2023-04-15T05:14:42;0.90;;;0.90;;
10418;SDS011;5256;48.728;9.140;2023-04-15T05:17:08;0.90;;;0.90;;
10418;SDS011;5256;48.728;9.140;2023-04-15T05:19:35;0.90;;;0.90;;
10418;SDS011;5256;48.728;9.140;2023-04-15T05:22:00;0.90;;;0.90;;
10418;SDS011;5256;48.728;9.140;2023-04-15T05:24:26;0.80;;;0.80;;
10418;SDS011;5256;48.728;9.140;2023-04-15T05:26:51;0.90;;;0.90;;
10418;SDS011;5256;48.728;9.140;2023-04-15T05:29:17;0.80;;;0.80;;
10418;SDS011;5256;48.728;9.140;2023-04-15T05:31:42;0.80;;;0.80;;
10418;SDS011;5256;48.728;9.140;2023-04-15T05:34:08;0.90;;;0.90;;
10418;SDS011;5256;48.728;9.140;2023-04-15T05:36:35;0.77;;;0.77;;
10418;SDS011;5256;48.728;9.140;2023-04-15T05:39:01;0.73;;;0.73;;
10418;SDS011;5256;48.728;9.140;2023-04-15T05:41:26;0.70;;;0.70;;
10418;SDS011;5256;48.728;9.140;2023-04-15T05:43:52;0.80;;;0.80;;
10418;SDS011;5256;48.728;9.140;2023-04-15T05:46:18;0.80;;;0.80;;
10418;SDS011;5256;48.728;9.140;2023-04-15T05:48:43;0.80;;;0.80;;
10418;SDS011;5256;48.728;9.140;2023-04-15T05:51:09;0.70;;;0.70;;
10418;SDS011;5256;48.728;9.140;2023-04-15T05:53:35;0.70;;;0.70;;
10418;SDS011;5256;48.728;9.140;2023-04-15T05:56:01;0.70;;;0.70;;
10418;SDS011;5256;48.728;9.140;2023-04-15T05:58:26;0.70;;;0.70;;
10418;SDS011;5256;48.728;9.140;2023-04-15T06:00:52;0.80;;;0.80;;
10418;SDS011;5256;48.728;9.140;2023-04-15T06:03:17;0.90;;;0.90;;
10418;SDS011;5256;48.728;9.140;2023-04-15T06:05:43;0.60;;;0.60;;
10418;SDS011;5256;48.728;9.140;2023-04-15T06:08:09;0.70;;;0.70;;
10418;SDS011;5256;48.728;9.140;2023-04-15T06:10:35;0.63;;;0.63;;
10418;SDS011;5256;48.728;9.140;2023-04-15T06:13:01;0.60;;;0.60;;
10418;SDS011;5256;48.728;9.140;2023-04-15T06:15:28;0.60;;;0.60;;
10418;SDS011;5256;48.728;9.140;2023-04-15T06:17:54;0.60;;;0.60;;
10418;SDS011;5256;48.728;9.140;2023-04-15T06:20:20;0.70;;;0.70;;
10418;SDS011;5256;48.728;9.140;2023-04-15T06:22:45;0.60;;;0.60;;
10418;SDS011;5256;48.728;9.140;2023-04-15T06:25:11;0.50;;;0.50;;
10418;SDS011;5256;48.728;9.140;2023-04-15T06:27:36;0.50;;;0.50;;
10418;SDS011;5256;48.728;9.140;2023-04-15T06:30:02;0.50;;;0.50;;
10418;SDS011;5256;48.728;9.140;2023-04-15T06:32:28;0.50;;;0.50;;
10418;SDS011;5256;48.728;9.140;2023-04-15T06:34:54;0.50;;;0.50;;
10418;SDS011;5256;48.728;9.140;2023-04-15T06:37:20;0.50;;;0.50;;
10418;SDS011;5256;48.728;9.140;2023-04-15T06:39:46;0.40;;;0.40;;
10418;SDS011;5256;48.728;9.140;2023-04-15T06:42:11;0.50;;;0.50;;
10418;SDS011;5256;48.728;9.140;2023-04-15T06:44:37;0.40;;;0.40;;
10418;SDS011;5256;48.728;9.140;2023-04-15T06:47:03;0.50;;;0.50;;
10418;SDS011;5256;48.728;9.140;2023-04-15T06:49:30;0.50;;;0.50;;
10418;SDS011;5256;48.728;9.140;2023-04-15T06:51:57;0.60;;;0.60;;
10418;SDS011;5256;48.728;9.140;2023-04-15T06:54:24;0.50;;;0.50;;
10418;SDS011;5256;48.728;9.140;2023-04-15T06:56:50;0.40;;;0.40;;
10418;SDS011;5256;48.728;9.140;2023-04-15T06:59:16;0.40;;;0.40;;
10418;SDS011;5256;48.728;9.140;2023-04-15T07:01:42;0.40;;;0.40;;
10418;SDS011;5256;48.728;9.140;2023-04-15T07:04:08;0.50;;;0.50;;
10418;SDS011;5256;48.728;9.140;2023-04-15T07:06:34;0.50;;;0.50;;
10418;SDS011;5256;48.728;9.140;2023-04-15T07:08:59;0.40;;;0.40;;
10418;SDS011;5256;48.728;9.140;2023-04-15T07:11:25;0.50;;;0.50;;
10418;SDS011;5256;48.728;9.140;2023-04-15T07:13:51;0.57;;;0.57;;
10418;SDS011;5256;48.728;9.140;2023-04-15T07:16:17;0.50;;;0.50;;
10418;SDS011;5256;48.728;9.140;2023-04-15T07:18:43;0.40;;;0.40;;
10418;SDS011;5256;48.728;9.140;2023-04-15T07:21:09;0.50;;;0.50;;
10418;SDS011;5256;48.728;9.140;2023-04-15T07:23:35;0.50;;;0.50;;
10418;SDS011;5256;48.728;9.140;2023-04-15T07:26:00;0.50;;;0.50;;
10418;SDS011;5256;48.728;9.140;2023-04-15T07:28:26;0.50;;;0.50;;
10418;SDS011;5256;48.728;9.140;2023-04-15T07:30:52;0.60;;;0.60;;
10418;SDS011;5256;48.728;9.140;2023-04-15T07:33:17;0.50;;;0.50;;
10418;SDS011;5256;48.728;9.140;2023-04-15T07:35:43;0.50;;;0.50;;
10418;SDS011;5256;48.728;9.140;2023-04-15T07:38:09;0.50;;;0.50;;
10418;SDS011;5256;48.728;9.140;2023-04-15T07:40:37;0.50;;;0.50;;
10418;SDS011;5256;48.728;9.140;2023-04-15T07:43:03;0.40;;;0.40;;
10418;SDS011;5256;48.728;9.140;2023-04-15T07:45:29;0.37;;;0.37;;
10418;SDS011;5256;48.728;9.140;2023-04-15T07:47:55;0.40;;;0.40;;
10418;SDS011;5256;48.728;9.140;2023-04-15T07:50:21;0.40;;;0.40;;
10418;SDS011;5256;48.728;9.140;2023-04-15T07:52:47;0.30;;;0.30;;
10418;SDS011;5256;48.728;9.140;2023-04-15T07:55:13;0.30;;;0.30;;
10418;SDS011;5256;48.728;9.140;2023-04-15T07:57:41;0.30;;;0.30;;
10418;SDS011;5256;48.728;9.140;2023-04-15T08:00:07;0.30;;;0.30;;
10418;SDS011;5256;48.728;9.140;2023-04-15T08:02:33;0.40;;;0.40;;
10418;SDS011;5256;48.728;9.140;2023-04-15T08:04:59;0.40;;;0.40;;
10418;SDS011;5256;48.728;9.140;2023-04-15T08:07:27;0.30;;;0.30;;
10418;SDS011;5256;48.728;9.140;2023-04-15T08:09:52;0.40;;;0.40;;
10418;SDS011;5256;48.728;9.140;2023-04-15T08:12:18;0.40;;;0.40;;
10418;SDS011;5256;48.728;9.140;2023-04-15T08:14:43;0.40;;;0.40;;
10418;SDS011;5256;48.728;9.140;2023-04-15T08:17:09;0.43;;;0.43;;
10418;SDS011;5256;48.728;9.140;2023-04-15T08:19:35;0.30;;;0.30;;
10418;SDS011;5256;48.728;9.140;2023-04-15T08:22:01;0.40;;;0.40;;
10418;SDS011;5256;48.728;9.140;2023-04-15T08:24:26;0.40;;;0.40;;
10418;SDS011;5256;48.728;9.140;2023-04-15T08:26:52;0.40;;;0.40;;
10418;SDS011;5256;48.728;9.140;2023-04-15T08:29:18;0.47;;;0.47;;
10418;SDS011;5256;48.728;9.140;2023-04-15T08:31:44;0.50;;;0.50;;
10418;SDS011;5256;48.728;9.140;2023-04-15T08:34:12;0.40;;;0.40;;
10418;SDS011;5256;48.728;9.140;2023-04-15T08:36:39;0.40;;;0.40;;
10418;SDS011;5256;48.728;9.140;2023-04-15T08:39:05;0.50;;;0.50;;
10418;SDS011;5256;48.728;9.140;2023-04-15T08:42:15;0.40;;;0.40;;
10418;SDS011;5256;48.728;9.140;2023-04-15T08:44:34;0.37;;;0.37;;
10418;SDS011;5256;48.728;9.140;2023-04-15T08:47:05;0.30;;;0.30;;
10418;SDS011;5256;48.728;9.140;2023-04-15T08:49:32;0.40;;;0.40;;
10418;SDS011;5256;48.728;9.140;2023-04-15T08:52:03;0.40;;;0.40;;
10418;SDS011;5256;48.728;9.140;2023-04-15T08:54:29;0.40;;;0.40;;
10418;SDS011;5256;48.728;9.140;2023-04-15T08:56:56;0.50;;;0.50;;
10418;SDS011;5256;48.728;9.140;2023-04-15T08:59:22;0.63;;;0.63;;
10418;SDS011;5256;48.728;9.140;2023-04-15T09:01:49;0.40;;;0.40;;
10418;SDS011;5256;48.728;9.140;2023-04-15T09:04:15;0.50;;;0.50;;
10418;SDS011;5256;48.728;9.140;2023-04-15T09:06:41;0.30;;;0.30;;
10418;SDS011;5256;48.728;9.140;2023-04-15T09:09:07;0.40;;;0.40;;
10418;SDS011;5256;48.728;9.140;2023-04-15T09:11:33;0.30;;;0.30;;
10418;SDS011;5256;48.728;9.140;2023-04-15T09:13:58;0.30;;;0.30;;
10418;SDS011;5256;48.728;9.140;2023-04-15T09:16:24;0.30;;;0.30;;
10418;SDS011;5256;48.728;9.140;2023-04-15T09:18:50;0.30;;;0.30;;
10418;SDS011;5256;48.728;9.140;2023-04-15T09:21:16;0.30;;;0.30;;
10418;SDS011;5256;48.728;9.140;2023-04-15T09:23:56;0.30;;;0.30;;
10418;SDS011;5256;48.728;9.140;2023-04-15T09:26:36;0.30;;;0.30;;
10418;SDS011;5256;48.728;9.140;2023-04-15T09:29:04;0.50;;;0.50;;
10418;SDS011;5256;48.728;9.140;2023-04-15T09:31:31;0.30;;;0.30;;
10418;SDS011;5256;48.728;9.140;2023-04-15T09:33:57;0.30;;;0.30;;
10418;SDS011;5256;48.728;9.140;2023-04-15T09:36:23;0.50;;;0.50;;
10418;SDS011;5256;48.728;9.140;2023-04-15T09:38:53;0.40;;;0.40;;
10418;SDS011;5256;48.728;9.140;2023-04-15T09:41:22;0.40;;;0.40;;
10418;SDS011;5256;48.728;9.140;2023-04-15T09:43:48;0.50;;;0.50;;
10418;SDS011;5256;48.728;9.140;2023-04-15T09:46:15;0.40;;;0.40;;
10418;SDS011;5256;48.728;9.140;2023-04-15T09:48:40;0.40;;;0.40;;
10418;SDS011;5256;48.728;9.140;2023-04-15T09:51:06;0.30;;;0.30;;
10418;SDS011;5256;48.728;9.140;2023-04-15T09:53:32;0.40;;;0.40;;
10418;SDS011;5256;48.728;9.140;2023-04-15T09:56:00;0.30;;;0.30;;
10418;SDS011;5256;48.728;9.140;2023-04-15T10:00:53;0.30;;;0.30;;
10418;SDS011;5256;48.728;9.140;2023-04-15T10:03:24;0.30;;;0.30;;
10418;SDS011;5256;48.728;9.140;2023-04-15T10:05:51;0.30;;;0.30;;
10418;SDS011;5256;48.728;9.140;2023-04-15T10:08:20;0.33;;;0.33;;
10418;SDS011;5256;48.728;9.140;2023-04-15T10:10:48;0.40;;;0.40;;
10418;SDS011;5256;48.728;9.140;2023-04-15T10:13:15;0.47;;;0.47;;
10418;SDS011;5256;48.728;9.140;2023-04-15T10:15:55;0.40;;;0.40;;
10418;SDS011;5256;48.728;9.140;2023-04-15T10:18:24;0.50;;;0.50;;
10418;SDS011;5256;48.728;9.140;2023-04-15T10:20:51;0.50;;;0.50;;
10418;SDS011;5256;48.728;9.140;2023-04-15T10:23:17;0.53;;;0.53;;
10418;SDS011;5256;48.728;9.140;2023-04-15T10:25:44;0.30;;;0.30;;
10418;SDS011;5256;48.728;9.140;2023-04-15T10:28:11;0.47;;;0.47;;
10418;SDS011;5256;48.728;9.140;2023-04-15T10:30:37;0.30;;;0.30;;
10418;SDS011;5256;48.728;9.140;2023-04-15T10:33:03;0.50;;;0.50;;
10418;SDS011;5256;48.728;9.140;2023-04-15T10:35:30;0.40;;;0.40;;
10418;SDS011;5256;48.728;9.140;2023-04-15T10:37:57;0.40;;;0.40;;
10418;SDS011;5256;48.728;9.140;2023-04-15T10:43:02;0.40;;;0.40;;
10418;SDS011;5256;48.728;9.140;2023-04-15T10:45:31;0.30;;;0.30;;
10418;SDS011;5256;48.728;9.140;2023-04-15T10:48:03;0.40;;;0.40;;
10418;SDS011;5256;48.728;9.140;2023-04-15T10:50:31;0.30;;;0.30;;
10418;SDS011;5256;48.728;9.140;2023-04-15T10:52:57;0.43;;;0.43;;
10418;SDS011;5256;48.728;9.140;2023-04-15T10:55:24;0.37;;;0.37;;
10418;SDS011;5256;48.728;9.140;2023-04-15T10:57:52;0.33;;;0.33;;
10418;SDS011;5256;48.728;9.140;2023-04-15T11:00:20;0.40;;;0.40;;
10418;SDS011;5256;48.728;9.140;2023-04-15T11:08:06;0.40;;;0.40;;
10418;SDS011;5256;48.728;9.140;2023-04-15T11:12:59;0.40;;;0.40;;
10418;SDS011;5256;48.728;9.140;2023-04-15T11:15:30;0.40;;;0.40;;
10418;SDS011;5256;48.728;9.140;2023-04-15T11:18:11;0.30;;;0.30;;
10418;SDS011;5256;48.728;9.140;2023-04-15T11:20:53;0.40;;;0.40;;
10418;SDS011;5256;48.728;9.140;2023-04-15T11:23:47;0.43;;;0.43;;
10418;SDS011;5256;48.728;9.140;2023-04-15T11:26:13;0.40;;;0.40;;
10418;SDS011;5256;48.728;9.140;2023-04-15T11:28:40;0.30;;;0.30;;
10418;SDS011;5256;48.728;9.140;2023-04-15T11:31:17;0.50;;;0.50;;
10418;SDS011;5256;48.728;9.140;2023-04-15T11:33:44;0.50;;;0.50;;
10418;SDS011;5256;48.728;9.140;2023-04-15T11:36:11;0.43;;;0.43;;
10418;SDS011;5256;48.728;9.140;2023-04-15T11:38:41;0.50;;;0.50;;
10418;SDS011;5256;48.728;9.140;2023-04-15T11:41:07;0.60;;;0.60;;
10418;SDS011;5256;48.728;9.140;2023-04-15T11:43:32;0.50;;;0.50;;
10418;SDS011;5256;48.728;9.140;2023-04-15T11:46:00;0.50;;;0.50;;
10418;SDS011;5256;48.728;9.140;2023-04-15T11:48:30;0.50;;;0.50;;
10418;SDS011;5256;48.728;9.140;2023-04-15T11:50:58;0.50;;;0.50;;
10418;SDS011;5256;48.728;9.140;2023-04-15T11:53:41;0.40;;;0.40;;
10418;SDS011;5256;48.728;9.140;2023-04-15T11:56:10;0.60;;;0.60;;
10418;SDS011;5256;48.728;9.140;2023-04-15T11:58:43;0.50;;;0.50;;
10418;SDS011;5256;48.728;9.140;2023-04-15T12:01:10;0.40;;;0.40;;
10418;SDS011;5256;48.728;9.140;2023-04-15T12:03:36;0.50;;;0.50;;
10418;SDS011;5256;48.728;9.140;2023-04-15T12:14:09;0.40;;;0.40;;
10418;SDS011;5256;48.728;9.140;2023-04-15T12:16:38;0.40;;;0.40;;
10418;SDS011;5256;48.728;9.140;2023-04-15T12:19:07;0.30;;;0.30;;
10418;SDS011;5256;48.728;9.140;2023-04-15T12:21:39;0.40;;;0.40;;
10418;SDS011;5256;48.728;9.140;2023-04-15T12:24:07;0.40;;;0.40;;
10418;SDS011;5256;48.728;9.140;2023-04-15T12:26:40;0.50;;;0.50;;
10418;SDS011;5256;48.728;9.140;2023-04-15T12:29:09;0.47;;;0.47;;
10418;SDS011;5256;48.728;9.140;2023-04-15T12:31:36;0.30;;;0.30;;
10418;SDS011;5256;48.728;9.140;2023-04-15T12:34:11;0.40;;;0.40;;
10418;SDS011;5256;48.728;9.140;2023-04-15T12:36:38;0.40;;;0.40;;
10418;SDS011;5256;48.728;9.140;2023-04-15T12:39:03;0.47;;;0.47;;
10418;SDS011;5256;48.728;9.140;2023-04-15T12:41:30;0.30;;;0.30;;
10418;SDS011;5256;48.728;9.140;2023-04-15T12:43:56;0.50;;;0.50;;
10418;SDS011;5256;48.728;9.140;2023-04-15T12:46:21;0.40;;;0.40;;
10418;SDS011;5256;48.728;9.140;2023-04-15T12:48:47;0.43;;;0.43;;
10418;SDS011;5256;48.728;9.140;2023-04-15T12:51:14;0.60;;;0.60;;
10418;SDS011;5256;48.728;9.140;2023-04-15T12:53:39;0.50;;;0.50;;
10418;SDS011;5256;48.728;9.140;2023-04-15T12:56:05;0.40;;;0.40;;
10418;SDS011;5256;48.728;9.140;2023-04-15T12:58:34;0.60;;;0.60;;
10418;SDS011;5256;48.728;9.140;2023-04-15T13:01:01;0.50;;;0.50;;
10418;SDS011;5256;48.728;9.140;2023-04-15T13:03:27;0.40;;;0.40;;
10418;SDS011;5256;48.728;9.140;2023-04-15T13:05:52;0.60;;;0.60;;
10418;SDS011;5256;48.728;9.140;2023-04-15T13:08:21;0.50;;;0.50;;
10418;SDS011;5256;48.728;9.140;2023-04-15T13:10:47;0.60;;;0.60;;
10418;SDS011;5256;48.728;9.140;2023-04-15T13:13:13;0.43;;;0.43;;
10418;SDS011;5256;48.728;9.140;2023-04-15T13:15:38;0.50;;;0.50;;
10418;SDS011;5256;48.728;9.140;2023-04-15T13:18:05;0.50;;;0.50;;
10418;SDS011;5256;48.728;9.140;2023-04-15T13:20:31;0.50;;;0.50;;
10418;SDS011;5256;48.728;9.140;2023-04-15T13:22:57;0.40;;;0.40;;
10418;SDS011;5256;48.728;9.140;2023-04-15T13:25:22;0.40;;;0.40;;
10418;SDS011;5256;48.728;9.140;2023-04-15T13:27:48;0.43;;;0.43;;
10418;SDS011;5256;48.728;9.140;2023-04-15T13:30:14;0.40;;;0.40;;
10418;SDS011;5256;48.728;9.140;2023-04-15T13:32:40;0.50;;;0.50;;
10418;SDS011;5256;48.728;9.140;2023-04-15T13:35:05;0.47;;;0.47;;
10418;SDS011;5256;48.728;9.140;2023-04-15T13:37:32;0.40;;;0.40;;
10418;SDS011;5256;48.728;9.140;2023-04-15T13:39:57;0.53;;;0.53;;
10418;SDS011;5256;48.728;9.140;2023-04-15T13:42:23;0.43;;;0.43;;
10418;SDS011;5256;48.728;9.140;2023-04-15T13:44:48;0.50;;;0.50;;
10418;SDS011;5256;48.728;9.140;2023-04-15T13:47:15;0.40;;;0.40;;
10418;SDS011;5256;48.728;9.140;2023-04-15T13:49:41;0.50;;;0.50;;
10418;SDS011;5256;48.728;9.140;2023-04-15T13:52:07;0.57;;;0.57;;
10418;SDS011;5256;48.728;9.140;2023-04-15T13:54:33;0.60;;;0.60;;
10418;SDS011;5256;48.728;9.140;2023-04-15T13:56:58;0.57;;;0.57;;
10418;SDS011;5256;48.728;9.140;2023-04-15T13:59:25;0.37;;;0.37;;
10418;SDS011;5256;48.728;9.140;2023-04-15T14:01:51;0.40;;;0.40;;
10418;SDS011;5256;48.728;9.140;2023-04-15T14:04:17;0.43;;;0.43;;
10418;SDS011;5256;48.728;9.140;2023-04-15T14:06:42;0.50;;;0.50;;
10418;SDS011;5256;48.728;9.140;2023-04-15T14:09:08;0.50;;;0.50;;
10418;SDS011;5256;48.728;9.140;2023-04-15T14:11:34;0.50;;;0.50;;
10418;SDS011;5256;48.728;9.140;2023-04-15T14:14:00;0.60;;;0.60;;
10418;SDS011;5256;48.728;9.140;2023-04-15T14:16:26;0.50;;;0.50;;
10418;SDS011;5256;48.728;9.140;2023-04-15T14:18:52;0.50;;;0.50;;
10418;SDS011;5256;48.728;9.140;2023-04-15T14:21:17;0.60;;;0.60;;
10418;SDS011;5256;48.728;9.140;2023-04-15T14:23:43;0.63;;;0.63;;
10418;SDS011;5256;48.728;9.140;2023-04-15T14:26:09;0.43;;;0.43;;
10418;SDS011;5256;48.728;9.140;2023-04-15T14:28:34;0.50;;;0.50;;
10418;SDS011;5256;48.728;9.140;2023-04-15T14:31:02;0.30;;;0.30;;
10418;SDS011;5256;48.728;9.140;2023-04-15T14:33:27;0.50;;;0.50;;
10418;SDS011;5256;48.728;9.140;2023-04-15T14:35:53;0.50;;;0.50;;
10418;SDS011;5256;48.728;9.140;2023-04-15T14:38:18;0.40;;;0.40;;
10418;SDS011;5256;48.728;9.140;2023-04-15T14:40:46;0.53;;;0.53;;
10418;SDS011;5256;48.728;9.140;2023-04-15T14:43:12;0.40;;;0.40;;
10418;SDS011;5256;48.728;9.140;2023-04-15T14:45:37;0.50;;;0.50;;
10418;SDS011;5256;48.728;9.140;2023-04-15T14:48:03;0.60;;;0.60;;
10418;SDS011;5256;48.728;9.140;2023-04-15T14:50:30;0.50;;;0.50;;
10418;SDS011;5256;48.728;9.140;2023-04-15T14:52:56;0.50;;;0.50;;
10418;SDS011;5256;48.728;9.140;2023-04-15T14:55:23;0.40;;;0.40;;
10418;SDS011;5256;48.728;9.140;2023-04-15T14:57:48;0.57;;;0.57;;
10418;SDS011;5256;48.728;9.140;2023-04-15T15:00:14;0.40;;;0.40;;
10418;SDS011;5256;48.728;9.140;2023-04-15T15:02:40;0.50;;;0.50;;
10418;SDS011;5256;48.728;9.140;2023-04-15T15:05:06;0.40;;;0.40;;
10418;SDS011;5256;48.728;9.140;2023-04-15T15:07:33;0.50;;;0.50;;
10418;SDS011;5256;48.728;9.140;2023-04-15T15:10:00;0.50;;;0.50;;
10418;SDS011;5256;48.728;9.140;2023-04-15T15:12:26;0.40;;;0.40;;
10418;SDS011;5256;48.728;9.140;2023-04-15T15:14:53;0.50;;;0.50;;
10418;SDS011;5256;48.728;9.140;2023-04-15T15:17:19;0.50;;;0.50;;